Elwood, New Jersey
Current Conditions -  °F | °C
As of 9:02 PM on Monday 22 Dec 2014 (Local Time) from KACY Reporting Station
Overcast Overcast  
Wind Chill: 39°   Ceiling: 2100
Heat Index: 42°   Visibility: 8mi
Dew Point: 41°   Wind: 5mph
Humidity: 96%   Direction: 50°NE
Pressure: 30.15"   Gusts: NA
Location:  39.58°N, 74.72°W
Report Text: KACY 230202Z 05004KT 8SM BKN021 OVC075 06/05 A3015 RMK AO2 T00560050
Loading
Personal Weather Stations






























Interactive Weather Map New forecast layout! Learn more

10-Day Weather Forecast

Advertisements
Track Severe Weather on mobile